ADDS METAR Data INFO
IDs: Format: Raw Decoded Include TAF

Data at: 0351 UTC 18 Oct 2017

KEEO 180253Z AUTO 05005KT 10SM CLR 05/M07 A3024 RMK AO2 SLP228 T00501072 53006
KEEO 180153Z AUTO 07004KT 10SM CLR 07/M07 A3023 RMK AO2 SLP238 T00671072
KEEO 180053Z AUTO 28003KT 10SM CLR 14/M11 A3022 RMK AO2 SLP212 T01391106
KEEO 172353Z AUTO 00000KT 10SM CLR 19/M14 A3022 RMK AO2 SLP199 T01941139 10217 20150 56007
KEEO 172253Z AUTO 31008KT 10SM CLR 21/M16 A3023 RMK AO2 SLP193 T02111156
KEEO 172153Z AUTO 29008KT 10SM CLR 22/M16 A3023 RMK AO2 SLP195 T02171156
KEEO 172053Z AUTO 30007KT 10SM CLR 22/M16 A3025 RMK AO2 SLP197 T02171161 56032
KEEO 171953Z AUTO 29008KT 10SM CLR 20/M16 A3028 RMK AO2 SLP214 T02001156
KEEO 171853Z AUTO 00000KT 10SM CLR 18/M15 A3032 RMK AO2 SLP229 T01831150
KEEO 171753Z AUTO 00000KT 10SM CLR 15/M12 A3036 RMK AO2 SLP246 T01501122 10150 21056 58017
KEEO 171653Z AUTO 12003KT 10SM CLR 11/M11 A3039 RMK AO2 SLP266 T01111111
KEEO 171553Z AUTO 00000KT 10SM CLR 07/M09 A3041 RMK AO2 SLP285 T00671089
KEEO 171453Z AUTO 00000KT 10SM CLR 02/M09 A3042 RMK AO2 SLP297 T00221089 53002
KEEO 171353Z AUTO 04005KT 10SM CLR M03/M09 A3041 RMK AO2 SLP307 T10331094
KEEO 171253Z AUTO 00000KT 10SM CLR M04/M10 A3041 RMK AO2 SLP287 T10391100
KEEO 171153Z AUTO 06004KT 10SM CLR M04/M10 A3041 RMK AO2 SLP270 T10441100 10028 21050 55000
KEEO 171053Z AUTO 00000KT 10SM CLR M03/M10 A3040 RMK AO2 SLP259 T10281100
KEEO 170953Z AUTO 06005KT 10SM CLR M03/M09 A3040 RMK AO2 SLP257 T10331094
KEEO 170853Z AUTO 06004KT 10SM CLR M02/M10 A3041 RMK AO2 SLP258 T10171100 50001
KEEO 170753Z AUTO 06003KT 10SM CLR M02/M09 A3041 RMK AO2 SLP259 T10221094
KEEO 170653Z AUTO 06004KT 10SM CLR M01/M10 A3041 RMK AO2 SLP262 T10111100 402111067
KEEO 170553Z AUTO 08006KT 10SM CLR 01/M09 A3041 RMK AO2 SLP262 T00111094 10183 21006 51006
KEEO 170453Z AUTO 07005KT 10SM CLR 02/M09 A3041 RMK AO2 SLP275 T00171094
KEEO 170353Z AUTO 08005KT 10SM CLR 02/M09 A3040 RMK AO2 SLP279 T00221089
KEEO 170253Z AUTO 13003KT 10SM CLR 03/M10 A3039 RMK AO2 SLP285 T00331100 51010
KEEO 170153Z AUTO 06003KT 10SM CLR 04/M08 A3038 RMK AO2 SLP298 T00441083
KEEO 170053Z AUTO 00000KT 10SM CLR 11/M11 A3037 RMK AO2 SLP275 T01111106
KEEO 162353Z AUTO 30007KT 10SM CLR 18/M16 A3035 RMK AO2 SLP251 T01831156 10211 20156 56001
KEEO 162253Z AUTO 28009KT 10SM CLR 20/M17 A3035 RMK AO2 SLP243 T02001167
KEEO 162153Z AUTO 31007KT 10SM CLR 21/M17 A3036 RMK AO2 SLP238 T02061167
KEEO 162053Z AUTO 29009KT 10SM CLR 21/M16 A3036 RMK AO2 SLP238 T02061161 56022
KEEO 161953Z AUTO 32009KT 10SM CLR 21/M16 A3038 RMK AO2 SLP240 T02061161
KEEO 161853Z AUTO VRB03KT 10SM CLR 19/M13 A3041 RMK AO2 SLP256 T01891133
KEEO 161753Z AUTO 00000KT 9SM CLR 16/M10 A3043 RMK AO2 SLP271 T01561100 10156 21067 58017
KEEO 161653Z AUTO 00000KT 10SM CLR 11/M10 A3046 RMK AO2 SLP287 T01061100
KEEO 161553Z AUTO 00000KT 10SM CLR 06/M08 A3048 RMK AO2 SLP312 T00611083